sensor_id;sensor_type;location;lat;lon;timestamp;temperature;humidity
66140;DHT22;52945;51.908;8.364;2023-02-28T00:01:19;4.20;55.10
66140;DHT22;52945;51.908;8.364;2023-02-28T00:04:19;4.10;55.20
66140;DHT22;52945;51.908;8.364;2023-02-28T00:07:20;4.10;55.30
66140;DHT22;52945;51.908;8.364;2023-02-28T00:10:26;4.10;55.50
66140;DHT22;52945;51.908;8.364;2023-02-28T00:13:27;4.00;55.60
66140;DHT22;52945;51.908;8.364;2023-02-28T00:16:27;3.90;55.70
66140;DHT22;52945;51.908;8.364;2023-02-28T00:19:28;3.80;55.80
66140;DHT22;52945;51.908;8.364;2023-02-28T00:22:29;3.80;55.90
66140;DHT22;52945;51.908;8.364;2023-02-28T00:25:29;3.80;55.90
66140;DHT22;52945;51.908;8.364;2023-02-28T00:28:30;3.80;56.20
66140;DHT22;52945;51.908;8.364;2023-02-28T00:31:30;3.80;56.50
66140;DHT22;52945;51.908;8.364;2023-02-28T00:34:31;3.80;56.60
66140;DHT22;52945;51.908;8.364;2023-02-28T00:37:38;3.70;56.70
66140;DHT22;52945;51.908;8.364;2023-02-28T00:40:39;3.70;56.70
66140;DHT22;52945;51.908;8.364;2023-02-28T00:43:39;3.60;56.90
66140;DHT22;52945;51.908;8.364;2023-02-28T00:46:40;3.70;56.90
66140;DHT22;52945;51.908;8.364;2023-02-28T00:49:41;3.70;56.90
66140;DHT22;52945;51.908;8.364;2023-02-28T00:52:41;3.60;57.00
66140;DHT22;52945;51.908;8.364;2023-02-28T00:55:42;3.60;57.10
66140;DHT22;52945;51.908;8.364;2023-02-28T00:58:42;3.60;57.10
66140;DHT22;52945;51.908;8.364;2023-02-28T01:01:44;3.50;57.30
66140;DHT22;52945;51.908;8.364;2023-02-28T01:04:46;3.60;57.30
66140;DHT22;52945;51.908;8.364;2023-02-28T01:07:46;3.50;57.60
66140;DHT22;52945;51.908;8.364;2023-02-28T01:10:47;3.50;57.60
66140;DHT22;52945;51.908;8.364;2023-02-28T01:13:48;3.50;57.40
66140;DHT22;52945;51.908;8.364;2023-02-28T01:16:48;3.50;57.40
66140;DHT22;52945;51.908;8.364;2023-02-28T01:19:49;3.50;57.40
66140;DHT22;52945;51.908;8.364;2023-02-28T01:22:50;3.50;57.40
66140;DHT22;52945;51.908;8.364;2023-02-28T01:25:51;3.40;57.40
66140;DHT22;52945;51.908;8.364;2023-02-28T01:28:52;3.40;57.30
66140;DHT22;52945;51.908;8.364;2023-02-28T01:31:53;3.40;57.50
66140;DHT22;52945;51.908;8.364;2023-02-28T01:34:54;3.40;57.40
66140;DHT22;52945;51.908;8.364;2023-02-28T01:37:55;3.40;57.30
66140;DHT22;52945;51.908;8.364;2023-02-28T01:40:55;3.30;57.30
66140;DHT22;52945;51.908;8.364;2023-02-28T01:44:00;3.20;57.20
66140;DHT22;52945;51.908;8.364;2023-02-28T01:47:03;3.20;57.10
66140;DHT22;52945;51.908;8.364;2023-02-28T01:50:07;3.20;57.00
66140;DHT22;52945;51.908;8.364;2023-02-28T01:53:12;3.20;57.10
66140;DHT22;52945;51.908;8.364;2023-02-28T01:56:17;3.10;56.90
66140;DHT22;52945;51.908;8.364;2023-02-28T01:59:34;3.10;56.80
66140;DHT22;52945;51.908;8.364;2023-02-28T02:02:36;3.10;56.90
66140;DHT22;52945;51.908;8.364;2023-02-28T02:05:39;3.10;57.00
66140;DHT22;52945;51.908;8.364;2023-02-28T02:08:40;3.10;57.20
66140;DHT22;52945;51.908;8.364;2023-02-28T02:11:42;3.10;57.20
66140;DHT22;52945;51.908;8.364;2023-02-28T02:14:54;3.00;57.40
66140;DHT22;52945;51.908;8.364;2023-02-28T02:18:08;3.00;57.50
66140;DHT22;52945;51.908;8.364;2023-02-28T02:28:06;2.90;57.40
66140;DHT22;52945;51.908;8.364;2023-02-28T02:38:10;2.80;57.70
66140;DHT22;52945;51.908;8.364;2023-02-28T02:41:46;2.80;57.60
66140;DHT22;52945;51.908;8.364;2023-02-28T02:44:53;2.80;57.50
66140;DHT22;52945;51.908;8.364;2023-02-28T02:47:56;2.80;57.60
66140;DHT22;52945;51.908;8.364;2023-02-28T02:51:01;2.70;57.70
66140;DHT22;52945;51.908;8.364;2023-02-28T02:54:24;2.70;57.70
66140;DHT22;52945;51.908;8.364;2023-02-28T02:57:36;2.70;57.80
66140;DHT22;52945;51.908;8.364;2023-02-28T03:00:42;2.70;57.70
66140;DHT22;52945;51.908;8.364;2023-02-28T03:03:44;2.60;57.70
66140;DHT22;52945;51.908;8.364;2023-02-28T03:06:45;2.60;57.80
66140;DHT22;52945;51.908;8.364;2023-02-28T03:09:52;2.60;57.90
66140;DHT22;52945;51.908;8.364;2023-02-28T03:23:33;2.50;58.20
66140;DHT22;52945;51.908;8.364;2023-02-28T03:26:45;2.40;58.30
66140;DHT22;52945;51.908;8.364;2023-02-28T03:30:18;2.40;58.40
66140;DHT22;52945;51.908;8.364;2023-02-28T03:33:34;2.40;58.40
66140;DHT22;52945;51.908;8.364;2023-02-28T03:36:38;2.40;58.60
66140;DHT22;52945;51.908;8.364;2023-02-28T03:39:51;2.30;58.60
66140;DHT22;52945;51.908;8.364;2023-02-28T03:42:59;2.30;58.80
66140;DHT22;52945;51.908;8.364;2023-02-28T03:46:06;2.30;58.80
66140;DHT22;52945;51.908;8.364;2023-02-28T03:52:17;2.20;59.00
66140;DHT22;52945;51.908;8.364;2023-02-28T03:55:19;2.20;59.00
66140;DHT22;52945;51.908;8.364;2023-02-28T03:58:41;2.20;59.10
66140;DHT22;52945;51.908;8.364;2023-02-28T04:01:46;2.20;58.90
66140;DHT22;52945;51.908;8.364;2023-02-28T04:04:47;2.10;59.00
66140;DHT22;52945;51.908;8.364;2023-02-28T04:07:48;2.10;59.10
66140;DHT22;52945;51.908;8.364;2023-02-28T04:11:04;2.10;59.10
66140;DHT22;52945;51.908;8.364;2023-02-28T04:14:07;2.10;59.10
66140;DHT22;52945;51.908;8.364;2023-02-28T04:17:08;2.10;59.20
66140;DHT22;52945;51.908;8.364;2023-02-28T04:20:09;2.00;59.20
66140;DHT22;52945;51.908;8.364;2023-02-28T04:23:10;2.00;59.30
66140;DHT22;52945;51.908;8.364;2023-02-28T04:26:11;2.00;59.50
66140;DHT22;52945;51.908;8.364;2023-02-28T04:29:13;2.00;59.30
66140;DHT22;52945;51.908;8.364;2023-02-28T04:32:14;2.00;59.30
66140;DHT22;52945;51.908;8.364;2023-02-28T04:35:15;2.00;59.40
66140;DHT22;52945;51.908;8.364;2023-02-28T04:38:16;1.90;59.40
66140;DHT22;52945;51.908;8.364;2023-02-28T04:41:17;1.90;59.30
66140;DHT22;52945;51.908;8.364;2023-02-28T04:44:17;1.80;59.30
66140;DHT22;52945;51.908;8.364;2023-02-28T04:47:18;1.80;59.30
66140;DHT22;52945;51.908;8.364;2023-02-28T04:50:19;1.80;59.20
66140;DHT22;52945;51.908;8.364;2023-02-28T04:53:19;1.80;59.40
66140;DHT22;52945;51.908;8.364;2023-02-28T04:56:21;1.80;59.30
66140;DHT22;52945;51.908;8.364;2023-02-28T04:59:21;1.80;59.30
66140;DHT22;52945;51.908;8.364;2023-02-28T05:02:22;1.70;59.50
66140;DHT22;52945;51.908;8.364;2023-02-28T05:05:24;1.80;59.60
66140;DHT22;52945;51.908;8.364;2023-02-28T05:08:24;1.70;59.50
66140;DHT22;52945;51.908;8.364;2023-02-28T05:14:26;1.70;59.50
66140;DHT22;52945;51.908;8.364;2023-02-28T05:17:26;1.70;59.50
66140;DHT22;52945;51.908;8.364;2023-02-28T05:20:27;1.70;59.60
66140;DHT22;52945;51.908;8.364;2023-02-28T05:23:27;1.70;59.70
66140;DHT22;52945;51.908;8.364;2023-02-28T05:26:28;1.60;59.70
66140;DHT22;52945;51.908;8.364;2023-02-28T05:29:29;1.60;59.80
66140;DHT22;52945;51.908;8.364;2023-02-28T05:32:30;1.70;59.80
66140;DHT22;52945;51.908;8.364;2023-02-28T05:35:31;1.60;59.80
66140;DHT22;52945;51.908;8.364;2023-02-28T05:38:31;1.60;59.90
66140;DHT22;52945;51.908;8.364;2023-02-28T05:41:32;1.60;60.00
66140;DHT22;52945;51.908;8.364;2023-02-28T05:44:33;1.50;60.00
66140;DHT22;52945;51.908;8.364;2023-02-28T05:47:34;1.50;60.10
66140;DHT22;52945;51.908;8.364;2023-02-28T05:50:35;1.50;60.10
66140;DHT22;52945;51.908;8.364;2023-02-28T05:53:36;1.50;60.00
66140;DHT22;52945;51.908;8.364;2023-02-28T05:56:37;1.50;60.20
66140;DHT22;52945;51.908;8.364;2023-02-28T05:59:40;1.50;60.20
66140;DHT22;52945;51.908;8.364;2023-02-28T06:02:40;1.50;60.30
66140;DHT22;52945;51.908;8.364;2023-02-28T06:05:41;1.50;60.30
66140;DHT22;52945;51.908;8.364;2023-02-28T06:08:41;1.40;60.30
66140;DHT22;52945;51.908;8.364;2023-02-28T06:11:43;1.40;60.30
66140;DHT22;52945;51.908;8.364;2023-02-28T06:14:44;1.40;60.30
66140;DHT22;52945;51.908;8.364;2023-02-28T06:17:45;1.40;60.30
66140;DHT22;52945;51.908;8.364;2023-02-28T06:20:55;1.30;60.30
66140;DHT22;52945;51.908;8.364;2023-02-28T06:23:56;1.30;60.40
66140;DHT22;52945;51.908;8.364;2023-02-28T06:26:57;1.30;60.40
66140;DHT22;52945;51.908;8.364;2023-02-28T06:30:05;1.30;60.30
66140;DHT22;52945;51.908;8.364;2023-02-28T06:33:06;1.40;60.30
66140;DHT22;52945;51.908;8.364;2023-02-28T06:36:07;1.30;60.30
66140;DHT22;52945;51.908;8.364;2023-02-28T06:39:09;1.40;60.30
66140;DHT22;52945;51.908;8.364;2023-02-28T06:42:09;1.30;60.30
66140;DHT22;52945;51.908;8.364;2023-02-28T06:45:11;1.30;60.50
66140;DHT22;52945;51.908;8.364;2023-02-28T06:48:12;1.30;60.50
66140;DHT22;52945;51.908;8.364;2023-02-28T06:51:18;1.30;60.70
66140;DHT22;52945;51.908;8.364;2023-02-28T06:54:20;1.30;60.80
66140;DHT22;52945;51.908;8.364;2023-02-28T06:57:21;1.30;60.80
66140;DHT22;52945;51.908;8.364;2023-02-28T07:00:21;1.30;60.80
66140;DHT22;52945;51.908;8.364;2023-02-28T07:03:22;1.30;60.90
66140;DHT22;52945;51.908;8.364;2023-02-28T07:06:24;1.30;60.90
66140;DHT22;52945;51.908;8.364;2023-02-28T07:09:24;1.30;61.00
66140;DHT22;52945;51.908;8.364;2023-02-28T07:12:30;1.30;61.00
66140;DHT22;52945;51.908;8.364;2023-02-28T07:15:30;1.40;61.00
66140;DHT22;52945;51.908;8.364;2023-02-28T07:18:31;1.40;61.10
66140;DHT22;52945;51.908;8.364;2023-02-28T07:21:32;1.40;61.10
66140;DHT22;52945;51.908;8.364;2023-02-28T07:24:32;1.40;61.10
66140;DHT22;52945;51.908;8.364;2023-02-28T07:27:33;1.40;61.20
66140;DHT22;52945;51.908;8.364;2023-02-28T07:30:34;1.50;61.40
66140;DHT22;52945;51.908;8.364;2023-02-28T07:33:35;1.50;61.40
66140;DHT22;52945;51.908;8.364;2023-02-28T07:36:36;1.40;61.60
66140;DHT22;52945;51.908;8.364;2023-02-28T07:39:37;1.50;61.60
66140;DHT22;52945;51.908;8.364;2023-02-28T07:42:38;1.50;61.60
66140;DHT22;52945;51.908;8.364;2023-02-28T07:45:38;1.50;61.60
66140;DHT22;52945;51.908;8.364;2023-02-28T07:48:39;1.60;61.70
66140;DHT22;52945;51.908;8.364;2023-02-28T07:51:40;1.60;61.60
66140;DHT22;52945;51.908;8.364;2023-02-28T07:54:40;1.70;61.70
66140;DHT22;52945;51.908;8.364;2023-02-28T07:57:41;1.70;61.70
66140;DHT22;52945;51.908;8.364;2023-02-28T08:00:41;1.60;61.80
66140;DHT22;52945;51.908;8.364;2023-02-28T08:03:42;1.70;61.90
66140;DHT22;52945;51.908;8.364;2023-02-28T08:06:42;1.80;61.70
66140;DHT22;52945;51.908;8.364;2023-02-28T08:09:44;1.90;61.70
66140;DHT22;52945;51.908;8.364;2023-02-28T08:12:44;1.90;61.30
66140;DHT22;52945;51.908;8.364;2023-02-28T08:15:45;1.90;60.20
66140;DHT22;52945;51.908;8.364;2023-02-28T08:18:49;2.10;60.00
66140;DHT22;52945;51.908;8.364;2023-02-28T08:21:50;2.10;59.80
66140;DHT22;52945;51.908;8.364;2023-02-28T08:24:50;2.20;59.20
66140;DHT22;52945;51.908;8.364;2023-02-28T08:27:52;2.20;57.90
66140;DHT22;52945;51.908;8.364;2023-02-28T08:30:52;2.40;57.20
66140;DHT22;52945;51.908;8.364;2023-02-28T08:33:54;2.60;56.00
66140;DHT22;52945;51.908;8.364;2023-02-28T08:36:57;2.70;55.10
66140;DHT22;52945;51.908;8.364;2023-02-28T08:39:58;3.00;55.00
66140;DHT22;52945;51.908;8.364;2023-02-28T08:42:58;3.20;53.30
66140;DHT22;52945;51.908;8.364;2023-02-28T08:46:00;3.60;52.40
66140;DHT22;52945;51.908;8.364;2023-02-28T08:49:00;3.80;51.30
66140;DHT22;52945;51.908;8.364;2023-02-28T08:52:02;4.20;50.90
66140;DHT22;52945;51.908;8.364;2023-02-28T08:55:02;4.40;49.40
66140;DHT22;52945;51.908;8.364;2023-02-28T08:58:03;4.60;48.40
66140;DHT22;52945;51.908;8.364;2023-02-28T09:01:08;4.90;47.00
66140;DHT22;52945;51.908;8.364;2023-02-28T09:04:10;5.20;45.90
66140;DHT22;52945;51.908;8.364;2023-02-28T09:07:12;5.40;44.90
66140;DHT22;52945;51.908;8.364;2023-02-28T09:10:13;5.60;46.20
66140;DHT22;52945;51.908;8.364;2023-02-28T09:13:13;6.00;44.70
66140;DHT22;52945;51.908;8.364;2023-02-28T09:16:15;6.20;43.50
66140;DHT22;52945;51.908;8.364;2023-02-28T09:19:16;6.50;42.90
66140;DHT22;52945;51.908;8.364;2023-02-28T09:22:17;6.60;43.50
66140;DHT22;52945;51.908;8.364;2023-02-28T09:25:17;6.70;42.00
66140;DHT22;52945;51.908;8.364;2023-02-28T09:28:18;6.70;42.30
66140;DHT22;52945;51.908;8.364;2023-02-28T09:31:22;7.00;41.90
66140;DHT22;52945;51.908;8.364;2023-02-28T09:34:25;7.10;40.60
66140;DHT22;52945;51.908;8.364;2023-02-28T09:37:25;7.30;40.60
66140;DHT22;52945;51.908;8.364;2023-02-28T09:40:31;7.40;40.80
66140;DHT22;52945;51.908;8.364;2023-02-28T09:43:35;7.50;39.20
66140;DHT22;52945;51.908;8.364;2023-02-28T09:46:42;7.50;38.90
66140;DHT22;52945;51.908;8.364;2023-02-28T09:49:46;7.50;39.50
66140;DHT22;52945;51.908;8.364;2023-02-28T09:52:49;7.40;39.20
66140;DHT22;52945;51.908;8.364;2023-02-28T09:55:58;7.30;39.80
66140;DHT22;52945;51.908;8.364;2023-02-28T09:59:05;7.20;39.80
66140;DHT22;52945;51.908;8.364;2023-02-28T10:02:39;7.20;39.50
66140;DHT22;52945;51.908;8.364;2023-02-28T10:05:41;7.10;40.30
66140;DHT22;52945;51.908;8.364;2023-02-28T10:08:58;7.10;40.70
66140;DHT22;52945;51.908;8.364;2023-02-28T10:12:04;7.10;40.80
66140;DHT22;52945;51.908;8.364;2023-02-28T10:15:05;7.00;40.50
66140;DHT22;52945;51.908;8.364;2023-02-28T10:18:14;7.00;40.40
66140;DHT22;52945;51.908;8.364;2023-02-28T10:21:50;7.00;40.80
66140;DHT22;52945;51.908;8.364;2023-02-28T10:24:55;7.00;40.20
66140;DHT22;52945;51.908;8.364;2023-02-28T10:28:11;6.90;40.80
66140;DHT22;52945;51.908;8.364;2023-02-28T10:31:17;7.00;41.10
66140;DHT22;52945;51.908;8.364;2023-02-28T10:34:18;7.00;41.10
66140;DHT22;52945;51.908;8.364;2023-02-28T10:37:19;7.10;41.90
66140;DHT22;52945;51.908;8.364;2023-02-28T10:43:22;7.10;42.10
66140;DHT22;52945;51.908;8.364;2023-02-28T10:46:23;7.20;42.00
66140;DHT22;52945;51.908;8.364;2023-02-28T10:49:27;7.20;42.30
66140;DHT22;52945;51.908;8.364;2023-02-28T10:52:38;7.30;42.70
66140;DHT22;52945;51.908;8.364;2023-02-28T10:55:39;7.30;42.60
66140;DHT22;52945;51.908;8.364;2023-02-28T11:01:59;7.50;43.20
66140;DHT22;52945;51.908;8.364;2023-02-28T11:05:00;7.60;43.10
66140;DHT22;52945;51.908;8.364;2023-02-28T11:08:15;7.60;43.40
66140;DHT22;52945;51.908;8.364;2023-02-28T11:11:17;7.70;43.00
66140;DHT22;52945;51.908;8.364;2023-02-28T11:14:54;8.00;42.70
66140;DHT22;52945;51.908;8.364;2023-02-28T11:21:27;8.20;42.30
66140;DHT22;52945;51.908;8.364;2023-02-28T11:24:50;8.40;41.70
66140;DHT22;52945;51.908;8.364;2023-02-28T11:28:00;8.50;41.30
66140;DHT22;52945;51.908;8.364;2023-02-28T11:34:25;9.20;39.80
66140;DHT22;52945;51.908;8.364;2023-02-28T11:37:27;9.50;39.80
66140;DHT22;52945;51.908;8.364;2023-02-28T11:40:39;9.70;39.40
66140;DHT22;52945;51.908;8.364;2023-02-28T11:54:11;10.70;35.30
66140;DHT22;52945;51.908;8.364;2023-02-28T11:57:44;10.70;35.10
66140;DHT22;52945;51.908;8.364;2023-02-28T12:20:45;11.50;34.40
66140;DHT22;52945;51.908;8.364;2023-02-28T12:27:28;11.70;33.40
66140;DHT22;52945;51.908;8.364;2023-02-28T12:30:35;11.80;33.10
66140;DHT22;52945;51.908;8.364;2023-02-28T12:33:42;11.80;33.30
66140;DHT22;52945;51.908;8.364;2023-02-28T12:36:45;11.80;33.70
66140;DHT22;52945;51.908;8.364;2023-02-28T12:39:51;11.70;34.10
66140;DHT22;52945;51.908;8.364;2023-02-28T12:43:13;11.80;34.70
66140;DHT22;52945;51.908;8.364;2023-02-28T12:46:23;11.70;35.70
66140;DHT22;52945;51.908;8.364;2023-02-28T12:49:34;11.70;35.80
66140;DHT22;52945;51.908;8.364;2023-02-28T12:59:39;11.60;34.10
66140;DHT22;52945;51.908;8.364;2023-02-28T13:05:46;11.70;34.00
66140;DHT22;52945;51.908;8.364;2023-02-28T13:09:17;11.70;33.40
66140;DHT22;52945;51.908;8.364;2023-02-28T13:12:18;11.70;33.10
66140;DHT22;52945;51.908;8.364;2023-02-28T13:15:27;11.60;33.60
66140;DHT22;52945;51.908;8.364;2023-02-28T13:19:07;11.60;33.10
66140;DHT22;52945;51.908;8.364;2023-02-28T13:38:16;11.40;33.20
66140;DHT22;52945;51.908;8.364;2023-02-28T13:48:18;11.60;32.70
66140;DHT22;52945;51.908;8.364;2023-02-28T13:51:44;11.60;33.40
66140;DHT22;52945;51.908;8.364;2023-02-28T13:58:36;11.70;33.10
66140;DHT22;52945;51.908;8.364;2023-02-28T14:01:45;11.80;33.00
66140;DHT22;52945;51.908;8.364;2023-02-28T14:05:04;11.90;33.00
66140;DHT22;52945;51.908;8.364;2023-02-28T14:08:27;11.90;32.60
66140;DHT22;52945;51.908;8.364;2023-02-28T14:11:37;11.80;32.50
66140;DHT22;52945;51.908;8.364;2023-02-28T14:17:38;11.90;32.90
66140;DHT22;52945;51.908;8.364;2023-02-28T14:20:40;11.80;32.60
66140;DHT22;52945;51.908;8.364;2023-02-28T14:23:56;11.90;33.00
66140;DHT22;52945;51.908;8.364;2023-02-28T14:37:28;11.80;33.50
66140;DHT22;52945;51.908;8.364;2023-02-28T14:40:34;11.90;33.70
66140;DHT22;52945;51.908;8.364;2023-02-28T14:43:55;11.80;33.40
66140;DHT22;52945;51.908;8.364;2023-02-28T14:47:00;11.90;33.90
66140;DHT22;52945;51.908;8.364;2023-02-28T14:50:38;11.90;33.90
66140;DHT22;52945;51.908;8.364;2023-02-28T14:53:38;12.00;34.20
66140;DHT22;52945;51.908;8.364;2023-02-28T14:56:39;11.90;34.20
66140;DHT22;52945;51.908;8.364;2023-02-28T14:59:40;12.00;34.40
66140;DHT22;52945;51.908;8.364;2023-02-28T15:02:41;11.90;34.40
66140;DHT22;52945;51.908;8.364;2023-02-28T15:05:44;12.00;34.40
66140;DHT22;52945;51.908;8.364;2023-02-28T15:12:15;11.90;34.20
66140;DHT22;52945;51.908;8.364;2023-02-28T15:15:17;11.70;33.70
66140;DHT22;52945;51.908;8.364;2023-02-28T15:18:36;11.60;33.90
66140;DHT22;52945;51.908;8.364;2023-02-28T15:21:42;11.40;33.70
66140;DHT22;52945;51.908;8.364;2023-02-28T15:24:49;11.40;34.10
66140;DHT22;52945;51.908;8.364;2023-02-28T15:27:52;11.60;34.60
66140;DHT22;52945;51.908;8.364;2023-02-28T15:31:00;11.50;34.20
66140;DHT22;52945;51.908;8.364;2023-02-28T15:34:05;11.60;34.30
66140;DHT22;52945;51.908;8.364;2023-02-28T15:40:46;11.60;33.90
66140;DHT22;52945;51.908;8.364;2023-02-28T15:44:28;11.60;33.70
66140;DHT22;52945;51.908;8.364;2023-02-28T15:47:33;11.70;33.70
66140;DHT22;52945;51.908;8.364;2023-02-28T15:50:34;11.70;34.20
66140;DHT22;52945;51.908;8.364;2023-02-28T15:53:45;11.70;34.30
66140;DHT22;52945;51.908;8.364;2023-02-28T15:56:51;11.70;34.10
66140;DHT22;52945;51.908;8.364;2023-02-28T16:00:02;11.70;34.20
66140;DHT22;52945;51.908;8.364;2023-02-28T16:03:27;11.70;34.30
66140;DHT22;52945;51.908;8.364;2023-02-28T16:06:40;11.60;34.10
66140;DHT22;52945;51.908;8.364;2023-02-28T16:09:44;11.50;34.30
66140;DHT22;52945;51.908;8.364;2023-02-28T16:12:45;11.50;34.70
66140;DHT22;52945;51.908;8.364;2023-02-28T16:15:45;11.40;34.80
66140;DHT22;52945;51.908;8.364;2023-02-28T16:18:46;11.40;35.00
66140;DHT22;52945;51.908;8.364;2023-02-28T16:21:47;11.30;35.00
66140;DHT22;52945;51.908;8.364;2023-02-28T16:24:48;11.30;35.50
66140;DHT22;52945;51.908;8.364;2023-02-28T16:27:50;11.20;35.50
66140;DHT22;52945;51.908;8.364;2023-02-28T16:30:52;11.10;35.40
66140;DHT22;52945;51.908;8.364;2023-02-28T16:33:52;11.00;35.50
66140;DHT22;52945;51.908;8.364;2023-02-28T16:36:53;10.80;35.70
66140;DHT22;52945;51.908;8.364;2023-02-28T16:39:54;10.70;36.10
66140;DHT22;52945;51.908;8.364;2023-02-28T16:42:58;10.60;36.40
66140;DHT22;52945;51.908;8.364;2023-02-28T16:45:59;10.50;37.20
66140;DHT22;52945;51.908;8.364;2023-02-28T16:49:01;10.30;37.60
66140;DHT22;52945;51.908;8.364;2023-02-28T16:52:02;10.20;38.20
66140;DHT22;52945;51.908;8.364;2023-02-28T16:55:03;10.10;38.50
66140;DHT22;52945;51.908;8.364;2023-02-28T16:58:04;9.90;38.90
66140;DHT22;52945;51.908;8.364;2023-02-28T17:01:04;9.70;39.20
66140;DHT22;52945;51.908;8.364;2023-02-28T17:04:05;9.70;39.80
66140;DHT22;52945;51.908;8.364;2023-02-28T17:07:11;9.60;39.80
66140;DHT22;52945;51.908;8.364;2023-02-28T17:10:21;9.40;39.80
66140;DHT22;52945;51.908;8.364;2023-02-28T17:13:22;9.30;40.40
66140;DHT22;52945;51.908;8.364;2023-02-28T17:16:27;9.20;40.80
66140;DHT22;52945;51.908;8.364;2023-02-28T17:19:29;9.10;40.90
66140;DHT22;52945;51.908;8.364;2023-02-28T17:22:29;9.00;41.00
66140;DHT22;52945;51.908;8.364;2023-02-28T17:25:30;8.90;41.00
66140;DHT22;52945;51.908;8.364;2023-02-28T17:28:31;8.90;41.30
66140;DHT22;52945;51.908;8.364;2023-02-28T17:31:32;8.80;41.60
66140;DHT22;52945;51.908;8.364;2023-02-28T17:34:38;8.70;41.40
66140;DHT22;52945;51.908;8.364;2023-02-28T17:37:39;8.70;41.90
66140;DHT22;52945;51.908;8.364;2023-02-28T17:40:40;8.60;42.30
66140;DHT22;52945;51.908;8.364;2023-02-28T17:43:40;8.60;42.20
66140;DHT22;52945;51.908;8.364;2023-02-28T17:46:42;8.50;42.30
66140;DHT22;52945;51.908;8.364;2023-02-28T17:49:43;8.50;42.40
66140;DHT22;52945;51.908;8.364;2023-02-28T17:52:44;8.40;42.50
66140;DHT22;52945;51.908;8.364;2023-02-28T17:55:45;8.30;42.50
66140;DHT22;52945;51.908;8.364;2023-02-28T17:58:45;8.20;42.70
66140;DHT22;52945;51.908;8.364;2023-02-28T18:01:46;8.20;42.70
66140;DHT22;52945;51.908;8.364;2023-02-28T18:04:46;8.10;43.10
66140;DHT22;52945;51.908;8.364;2023-02-28T18:07:47;8.10;43.10
66140;DHT22;52945;51.908;8.364;2023-02-28T18:10:48;8.00;43.00
66140;DHT22;52945;51.908;8.364;2023-02-28T18:13:52;7.80;43.20
66140;DHT22;52945;51.908;8.364;2023-02-28T18:16:54;7.80;43.20
66140;DHT22;52945;51.908;8.364;2023-02-28T18:19:55;7.70;43.60
66140;DHT22;52945;51.908;8.364;2023-02-28T18:22:56;7.70;43.80
66140;DHT22;52945;51.908;8.364;2023-02-28T18:25:56;7.60;44.00
66140;DHT22;52945;51.908;8.364;2023-02-28T18:28:58;7.60;44.20
66140;DHT22;52945;51.908;8.364;2023-02-28T18:31:59;7.50;44.10
66140;DHT22;52945;51.908;8.364;2023-02-28T18:35:01;7.50;44.60
66140;DHT22;52945;51.908;8.364;2023-02-28T18:41:04;7.30;44.50
66140;DHT22;52945;51.908;8.364;2023-02-28T18:44:05;7.30;44.50
66140;DHT22;52945;51.908;8.364;2023-02-28T18:47:06;7.30;44.90
66140;DHT22;52945;51.908;8.364;2023-02-28T18:50:07;7.20;45.00
66140;DHT22;52945;51.908;8.364;2023-02-28T18:53:08;7.10;45.20
66140;DHT22;52945;51.908;8.364;2023-02-28T18:56:15;7.10;45.40
66140;DHT22;52945;51.908;8.364;2023-02-28T18:59:16;7.10;45.50
66140;DHT22;52945;51.908;8.364;2023-02-28T19:02:17;7.00;45.70
66140;DHT22;52945;51.908;8.364;2023-02-28T19:05:18;7.00;45.50
66140;DHT22;52945;51.908;8.364;2023-02-28T19:08:19;6.90;45.60
66140;DHT22;52945;51.908;8.364;2023-02-28T19:11:20;6.90;45.70
66140;DHT22;52945;51.908;8.364;2023-02-28T19:14:21;6.90;45.90
66140;DHT22;52945;51.908;8.364;2023-02-28T19:17:22;6.90;45.80
66140;DHT22;52945;51.908;8.364;2023-02-28T19:20:22;6.70;46.00
66140;DHT22;52945;51.908;8.364;2023-02-28T19:23:23;6.70;46.30
66140;DHT22;52945;51.908;8.364;2023-02-28T19:26:25;6.70;46.40
66140;DHT22;52945;51.908;8.364;2023-02-28T19:29:26;6.60;46.70
66140;DHT22;52945;51.908;8.364;2023-02-28T19:32:26;6.60;46.80
66140;DHT22;52945;51.908;8.364;2023-02-28T19:35:27;6.60;46.80
66140;DHT22;52945;51.908;8.364;2023-02-28T19:38:27;6.50;46.90
66140;DHT22;52945;51.908;8.364;2023-02-28T19:41:28;6.50;46.80
66140;DHT22;52945;51.908;8.364;2023-02-28T19:44:29;6.50;47.00
66140;DHT22;52945;51.908;8.364;2023-02-28T19:47:29;6.40;47.00
66140;DHT22;52945;51.908;8.364;2023-02-28T19:50:30;6.30;47.10
66140;DHT22;52945;51.908;8.364;2023-02-28T19:53:32;6.20;47.20
66140;DHT22;52945;51.908;8.364;2023-02-28T19:56:33;6.20;47.50
66140;DHT22;52945;51.908;8.364;2023-02-28T19:59:34;6.20;47.60
66140;DHT22;52945;51.908;8.364;2023-02-28T20:02:35;6.20;47.70
66140;DHT22;52945;51.908;8.364;2023-02-28T20:05:36;6.10;47.80
66140;DHT22;52945;51.908;8.364;2023-02-28T20:08:37;6.10;47.80
66140;DHT22;52945;51.908;8.364;2023-02-28T20:11:38;6.10;48.00
66140;DHT22;52945;51.908;8.364;2023-02-28T20:14:38;6.00;48.00
66140;DHT22;52945;51.908;8.364;2023-02-28T20:17:39;5.90;48.20
66140;DHT22;52945;51.908;8.364;2023-02-28T20:20:41;5.90;48.30
66140;DHT22;52945;51.908;8.364;2023-02-28T20:23:43;5.80;48.30
66140;DHT22;52945;51.908;8.364;2023-02-28T20:26:47;5.90;48.30
66140;DHT22;52945;51.908;8.364;2023-02-28T20:29:48;5.80;48.20
66140;DHT22;52945;51.908;8.364;2023-02-28T20:32:49;5.80;48.40
66140;DHT22;52945;51.908;8.364;2023-02-28T20:35:50;5.70;48.50
66140;DHT22;52945;51.908;8.364;2023-02-28T20:38:57;5.80;48.70
66140;DHT22;52945;51.908;8.364;2023-02-28T20:41:57;5.70;48.60
66140;DHT22;52945;51.908;8.364;2023-02-28T20:44:58;5.70;48.70
66140;DHT22;52945;51.908;8.364;2023-02-28T20:47:58;5.60;48.70
66140;DHT22;52945;51.908;8.364;2023-02-28T20:50:59;5.60;48.80
66140;DHT22;52945;51.908;8.364;2023-02-28T20:53:59;5.60;48.80
66140;DHT22;52945;51.908;8.364;2023-02-28T20:57:00;5.50;49.00
66140;DHT22;52945;51.908;8.364;2023-02-28T21:00:01;5.40;49.10
66140;DHT22;52945;51.908;8.364;2023-02-28T21:03:02;5.40;49.20
66140;DHT22;52945;51.908;8.364;2023-02-28T21:06:03;5.40;49.30
66140;DHT22;52945;51.908;8.364;2023-02-28T21:09:05;5.30;49.30
66140;DHT22;52945;51.908;8.364;2023-02-28T21:12:07;5.20;49.40
66140;DHT22;52945;51.908;8.364;2023-02-28T21:15:08;5.20;49.60
66140;DHT22;52945;51.908;8.364;2023-02-28T21:18:09;5.20;49.60
66140;DHT22;52945;51.908;8.364;2023-02-28T21:21:18;5.20;49.70
66140;DHT22;52945;51.908;8.364;2023-02-28T21:24:19;5.10;49.70
66140;DHT22;52945;51.908;8.364;2023-02-28T21:27:19;5.10;49.80
66140;DHT22;52945;51.908;8.364;2023-02-28T21:30:21;5.10;49.80
66140;DHT22;52945;51.908;8.364;2023-02-28T21:33:22;5.00;49.90
66140;DHT22;52945;51.908;8.364;2023-02-28T21:36:25;5.00;49.80
66140;DHT22;52945;51.908;8.364;2023-02-28T21:39:26;4.90;49.90
66140;DHT22;52945;51.908;8.364;2023-02-28T21:42:29;4.90;49.90
66140;DHT22;52945;51.908;8.364;2023-02-28T21:45:29;4.90;50.00
66140;DHT22;52945;51.908;8.364;2023-02-28T21:48:31;4.90;50.10
66140;DHT22;52945;51.908;8.364;2023-02-28T21:51:32;4.90;50.10
66140;DHT22;52945;51.908;8.364;2023-02-28T21:54:32;4.80;50.00